Time;durP1;ratioP1;P1;durP2;ratioP2;P2;SDS_P1;SDS_P2;PMS_P1;PMS_P2;Temp;Humidity;BMP_temperature;BMP_pressure;BME280_temperature;BME280_humidity;BME280_pressure;Samples;Min_cycle;Max_cycle;Signal;HPM_P1;HPM_P2
2021/12/22 00:01:56;;;;;;;41.10;22.15;;;;;;;-3.54;86.84;102444.16;4991175;28;20503;-82
2021/12/22 00:04:24;;;;;;;36.95;18.52;;;;;;;-3.57;86.69;102454.66;4991383;28;20083;-82
2021/12/22 00:06:49;;;;;;;40.35;21.42;;;;;;;-3.57;86.94;102452.03;4991979;28;20661;-82
2021/12/22 00:09:15;;;;;;;39.60;18.48;;;;;;;-3.59;86.39;102452.84;4991322;28;20169;-82
2021/12/22 00:11:40;;;;;;;40.45;19.27;;;;;;;-3.64;86.06;102455.44;4990462;28;20315;-82
2021/12/22 00:14:05;;;;;;;46.72;22.40;;;;;;;-3.67;85.54;102449.25;5008875;28;20045;-82
2021/12/22 00:16:31;;;;;;;36.78;19.02;;;;;;;-3.71;85.28;102445.72;4990838;28;20744;-82
2021/12/22 00:18:56;;;;;;;43.50;21.50;;;;;;;-3.73;85.40;102455.34;4991999;28;20382;-82
2021/12/22 00:21:22;;;;;;;38.10;17.48;;;;;;;-3.77;85.58;102450.91;4989981;28;20040;-82
2021/12/22 00:23:48;;;;;;;41.42;19.98;;;;;;;-3.78;85.66;102450.00;4991287;28;20038;-83
2021/12/22 00:26:15;;;;;;;41.30;20.05;;;;;;;-3.80;85.85;102449.13;5008257;28;20037;-83
2021/12/22 00:28:41;;;;;;;42.88;20.42;;;;;;;-3.84;85.84;102451.69;4991672;28;20458;-82
2021/12/22 00:31:12;;;;;;;43.30;19.48;;;;;;;-3.89;85.44;102449.88;5011689;28;20029;-82
2021/12/22 00:33:45;;;;;;;38.30;20.75;;;;;;;-3.91;85.34;102440.22;4991076;28;20037;-83
2021/12/22 00:36:11;;;;;;;37.05;18.58;;;;;;;-3.90;85.37;102439.38;4990296;28;20113;-83
2021/12/22 00:38:36;;;;;;;37.67;19.67;;;;;;;-3.94;85.35;102443.72;5009370;28;20113;-83
2021/12/22 00:41:02;;;;;;;41.75;19.75;;;;;;;-3.93;85.66;102448.06;4991188;28;20022;-83
2021/12/22 00:43:27;;;;;;;38.70;20.60;;;;;;;-3.93;85.79;102449.84;5008646;28;20034;-82
2021/12/22 00:45:56;;;;;;;39.53;21.17;;;;;;;-3.93;85.76;102449.84;5008927;28;20044;-82
2021/12/22 00:48:22;;;;;;;38.00;20.23;;;;;;;-3.94;86.09;102455.94;5008552;28;20025;-82
2021/12/22 00:50:47;;;;;;;40.20;20.85;;;;;;;-4.00;85.34;102448.84;5008202;28;20100;-82
2021/12/22 00:53:12;;;;;;;40.60;21.15;;;;;;;-4.01;85.21;102440.97;5009583;28;20037;-82
2021/12/22 00:55:38;;;;;;;38.58;20.58;;;;;;;-4.00;85.35;102445.38;4991522;28;20025;-82
2021/12/22 00:58:04;;;;;;;44.38;21.55;;;;;;;-4.01;85.59;102444.50;4992920;28;20150;-82
2021/12/22 01:00:29;;;;;;;38.75;19.15;;;;;;;-4.03;85.31;102440.94;4998104;28;20470;-82
2021/12/22 01:02:55;;;;;;;41.03;22.88;;;;;;;-4.08;84.93;102442.66;5012182;28;20099;-83
2021/12/22 01:05:21;;;;;;;37.97;21.23;;;;;;;-4.09;85.29;102440.88;4993722;28;20370;-83
2021/12/22 01:07:48;;;;;;;45.10;20.95;;;;;;;-4.09;85.94;102454.00;4993940;28;20065;-83
2021/12/22 01:10:15;;;;;;;42.38;21.00;;;;;;;-4.07;86.18;102454.88;5012447;28;20358;-83
2021/12/22 01:12:40;;;;;;;40.83;19.98;;;;;;;-4.05;85.35;102445.31;5011055;28;20034;-83
2021/12/22 01:15:08;;;;;;;38.17;19.27;;;;;;;-4.02;85.55;102447.09;4993906;28;20087;-83
2021/12/22 01:17:41;;;;;;;43.95;20.48;;;;;;;-4.02;85.12;102445.34;4992009;28;20026;-82
2021/12/22 01:20:17;;;;;;;46.20;20.00;;;;;;;-4.04;84.68;102442.69;4980307;28;20485;-83
2021/12/22 01:25:11;;;;;;;43.00;21.92;;;;;;;-4.07;84.75;102436.50;5012142;28;20413;-83
2021/12/22 01:27:41;;;;;;;39.33;20.00;;;;;;;-4.09;85.18;102427.75;5011228;28;20034;-83
2021/12/22 01:30:08;;;;;;;41.17;17.67;;;;;;;-4.13;85.07;102432.09;4997680;28;20469;-83
2021/12/22 01:32:34;;;;;;;35.15;19.17;;;;;;;-4.13;84.41;102426.84;4993748;28;20029;-83
2021/12/22 01:34:59;;;;;;;36.88;18.20;;;;;;;-4.15;84.40;102432.91;5011585;28;20099;-83
2021/12/22 01:37:25;;;;;;;37.47;19.20;;;;;;;-4.12;84.96;102432.97;5011035;28;20112;-83
2021/12/22 01:39:50;;;;;;;41.53;19.70;;;;;;;-4.13;85.03;102434.72;4994042;28;20041;-83
2021/12/22 01:42:16;;;;;;;48.40;20.92;;;;;;;-4.12;84.71;102438.22;4993634;28;20037;-83
2021/12/22 01:45:14;;;;;;;42.58;22.52;;;;;;;-4.11;85.94;102429.47;5011154;28;20025;-83
2021/12/22 01:50:40;;;;;;;43.13;20.35;;;;;;;-4.14;84.96;102424.16;4997247;28;20040;-82
2021/12/22 01:53:46;;;;;;;42.95;19.85;;;;;;;-4.15;84.72;102428.53;4993471;28;20447;-82
2021/12/22 01:56:24;;;;;;;41.78;19.42;;;;;;;-4.21;84.87;102420.59;5011066;28;20389;-82
2021/12/22 01:58:53;;;;;;;37.00;17.08;;;;;;;-4.19;85.89;102416.22;4993634;28;20026;-82
2021/12/22 02:01:19;;;;;;;37.58;20.38;;;;;;;-4.17;86.20;102416.25;4992807;28;20133;-82
2021/12/22 02:03:47;;;;;;;37.63;17.88;;;;;;;-4.12;86.30;102422.47;5011113;28;20066;-82
2021/12/22 02:06:13;;;;;;;40.80;19.65;;;;;;;-4.11;86.46;102425.09;4992103;28;20036;-82
2021/12/22 02:08:40;;;;;;;42.35;21.33;;;;;;;-4.04;86.56;102441.84;5010390;28;20141;-82
2021/12/22 02:11:07;;;;;;;38.55;18.60;;;;;;;-4.04;86.42;102447.09;5010593;28;20064;-82
2021/12/22 02:13:37;;;;;;;38.22;20.33;;;;;;;-4.04;86.51;102449.72;5010680;28;20441;-82
2021/12/22 02:16:12;;;;;;;38.75;19.35;;;;;;;-4.07;86.04;102453.16;5010085;28;20053;-82
2021/12/22 02:18:41;;;;;;;43.55;19.42;;;;;;;-4.07;85.71;102457.50;4992867;28;20026;-82
2021/12/22 02:21:07;;;;;;;40.92;18.60;;;;;;;-4.09;85.77;102452.25;4992004;28;20431;-82
2021/12/22 02:23:33;;;;;;;40.03;19.40;;;;;;;-4.10;85.37;102436.47;5010794;28;20061;-82
2021/12/22 02:26:07;;;;;;;34.10;18.75;;;;;;;-4.10;85.26;102436.47;4991987;28;20026;-83
2021/12/22 02:28:35;;;;;;;40.53;17.88;;;;;;;-4.12;84.95;102449.59;4992516;28;20026;-83
2021/12/22 02:31:01;;;;;;;36.42;17.63;;;;;;;-4.16;85.25;102452.16;4992656;28;20117;-83
2021/12/22 02:33:37;;;;;;;42.28;19.05;;;;;;;-4.19;84.83;102445.09;5010983;28;20538;-83
2021/12/22 02:38:32;;;;;;;41.30;17.38;;;;;;;-4.21;84.72;102446.84;5010348;28;20030;-82
2021/12/22 02:40:57;;;;;;;40.92;17.08;;;;;;;-4.23;84.86;102446.81;4991875;28;20121;-82
2021/12/22 02:43:24;;;;;;;35.35;15.80;;;;;;;-4.25;84.76;102443.28;5010203;28;20036;-82
2021/12/22 02:45:51;;;;;;;38.58;17.45;;;;;;;-4.23;85.16;102451.19;5010229;28;20026;-82
2021/12/22 02:48:17;;;;;;;39.13;17.80;;;;;;;-4.21;84.97;102444.22;5010483;28;20088;-82
2021/12/22 02:50:44;;;;;;;42.38;18.88;;;;;;;-4.22;84.80;102443.34;4991462;28;20037;-82
2021/12/22 02:53:12;;;;;;;29.88;13.68;;;;;;;-4.21;84.82;102436.34;5010602;28;20028;-82
2021/12/22 02:55:58;;;;;;;34.05;16.40;;;;;;;-4.24;84.77;102429.28;4991986;28;20579;-82
2021/12/22 02:58:40;;;;;;;34.63;15.43;;;;;;;-4.22;84.02;102435.47;4992191;28;20132;-82
2021/12/22 03:06:32;;;;;;;38.03;18.30;;;;;;;-4.25;84.83;102432.78;5009362;28;20037;-82
2021/12/22 03:08:58;;;;;;;36.95;17.00;;;;;;;-4.26;84.74;102441.53;5009514;28;20543;-82
2021/12/22 03:11:24;;;;;;;33.25;14.80;;;;;;;-4.28;85.17;102443.25;4992209;28;20030;-82
2021/12/22 03:13:49;;;;;;;39.80;16.85;;;;;;;-4.32;85.18;102449.34;4992410;28;20025;-82
2021/12/22 03:16:17;;;;;;;34.70;16.65;;;;;;;-4.36;84.80;102455.38;4991456;28;20116;-82
2021/12/22 03:18:43;;;;;;;34.25;15.32;;;;;;;-4.40;84.92;102461.44;4991820;28;20034;-82
2021/12/22 03:21:20;;;;;;;38.20;18.10;;;;;;;-4.43;84.69;102458.78;5009743;28;20481;-82
2021/12/22 03:23:50;;;;;;;36.10;16.23;;;;;;;-4.47;84.39;102456.97;4992217;28;20026;-82
2021/12/22 03:26:17;;;;;;;;;;;;;;;-4.40;84.76;102467.56;4991762;28;20236;-82
2021/12/22 03:28:45;;;;;;;29.52;14.32;;;;;;;-4.49;84.38;102464.81;4991771;28;19991;-82
2021/12/22 03:31:10;;;;;;;34.20;16.38;;;;;;;-4.53;84.55;102465.63;4992179;28;20053;-82
2021/12/22 03:33:36;;;;;;;32.93;16.40;;;;;;;-4.55;84.06;102462.09;4991918;28;20018;-82
2021/12/22 03:36:01;;;;;;;33.47;15.82;;;;;;;-4.60;83.63;102462.03;5008328;28;20037;-82
2021/12/22 03:38:26;;;;;;;34.80;15.63;;;;;;;-4.62;83.79;102465.50;5009402;28;20041;-82
2021/12/22 03:40:52;;;;;;;34.17;15.00;;;;;;;-4.64;83.85;102468.09;5009900;28;20363;-82
2021/12/22 03:43:17;;;;;;;37.72;18.33;;;;;;;-4.64;83.67;102465.47;4991967;28;20220;-82
2021/12/22 03:45:43;;;;;;;34.88;16.77;;;;;;;-4.69;83.28;102456.63;4991196;28;20124;-82
2021/12/22 03:48:08;;;;;;;31.77;15.55;;;;;;;-4.69;83.38;102453.13;4991684;28;20115;-82
2021/12/22 03:50:33;;;;;;;36.78;16.38;;;;;;;-4.70;83.52;102449.63;5008328;28;20030;-82
2021/12/22 03:52:58;;;;;;;32.97;16.25;;;;;;;-4.75;83.32;102443.41;4991687;28;20033;-82
2021/12/22 03:55:24;;;;;;;36.22;16.17;;;;;;;-4.77;83.15;102445.16;4991379;28;20116;-82
2021/12/22 03:57:50;;;;;;;37.65;16.08;;;;;;;-4.77;83.79;102439.91;4991081;28;20029;-82
2021/12/22 04:00:16;;;;;;;31.52;14.77;;;;;;;-4.80;83.39;102445.97;4990647;28;20034;-82
2021/12/22 04:02:43;;;;;;;30.52;13.95;;;;;;;-4.76;83.82;102446.91;4990870;28;20029;-82
2021/12/22 04:05:09;;;;;;;31.77;15.38;;;;;;;-4.72;84.06;102453.97;4991260;28;20041;-82
2021/12/22 04:07:34;;;;;;;33.97;14.15;;;;;;;-4.69;84.04;102456.63;4990516;28;20378;-82
2021/12/22 04:10:08;;;;;;;33.38;15.98;;;;;;;-4.67;84.25;102454.03;5008962;28;20018;-82
2021/12/22 04:12:33;;;;;;;37.15;16.15;;;;;;;-4.69;84.04;102446.13;5008444;28;20026;-82
2021/12/22 04:14:59;;;;;;;33.92;14.60;;;;;;;-4.69;84.41;102440.88;4991307;28;20319;-82
2021/12/22 04:17:24;;;;;;;33.50;15.32;;;;;;;-4.68;84.33;102450.53;4991553;28;20037;-82
2021/12/22 04:19:49;;;;;;;32.90;14.82;;;;;;;-4.66;84.60;102440.94;5009264;28;20029;-82
2021/12/22 04:22:15;;;;;;;32.22;14.38;;;;;;;-4.65;84.72;102437.47;4990582;28;20021;-82
2021/12/22 04:24:40;;;;;;;28.98;12.63;;;;;;;-4.55;86.29;102430.63;4991100;28;20057;-82
2021/12/22 04:27:06;;;;;;;33.58;13.38;;;;;;;-4.48;86.94;102426.31;4990599;28;20030;-82
2021/12/22 04:29:31;;;;;;;32.58;14.02;;;;;;;-4.39;87.25;102424.72;4992636;28;20036;-83
2021/12/22 04:31:56;;;;;;;33.38;15.38;;;;;;;-4.36;87.10;102423.91;4992100;28;20176;-83
2021/12/22 04:34:22;;;;;;;36.08;14.68;;;;;;;-4.28;87.14;102424.00;4995039;28;20045;-82
2021/12/22 04:36:47;;;;;;;31.83;14.60;;;;;;;-4.23;87.74;102419.69;5011845;28;20252;-83
2021/12/22 04:39:12;;;;;;;29.92;14.13;;;;;;;-4.18;87.49;102414.50;4995116;28;20064;-83
2021/12/22 04:41:38;;;;;;;33.85;15.63;;;;;;;-4.16;87.59;102404.91;5012240;28;20029;-82
2021/12/22 04:44:03;;;;;;;29.05;14.48;;;;;;;-4.13;87.17;102408.47;4995456;28;20292;-82
2021/12/22 04:46:29;;;;;;;32.25;15.25;;;;;;;-4.08;87.73;102417.25;4994562;28;20055;-82
2021/12/22 04:48:54;;;;;;;33.92;14.48;;;;;;;-4.05;87.63;102419.91;4994277;28;20033;-82
2021/12/22 04:51:25;;;;;;;29.08;12.93;;;;;;;-4.00;88.04;102417.34;4993448;28;20030;-82
2021/12/22 04:54:03;;;;;;;28.02;12.75;;;;;;;-3.96;87.92;102424.41;4994663;28;20033;-82
2021/12/22 04:56:28;;;;;;;27.52;12.38;;;;;;;-3.94;87.99;102414.81;4994014;28;20028;-82
2021/12/22 04:58:53;;;;;;;30.45;13.27;;;;;;;-3.90;87.82;102418.34;4995034;28;20501;-82
2021/12/22 05:01:19;;;;;;;32.05;14.38;;;;;;;-3.89;88.03;102425.38;5009879;28;20030;-82
2021/12/22 05:03:44;;;;;;;30.95;13.35;;;;;;;-3.90;87.78;102413.97;5011741;28;20365;-82
2021/12/22 05:06:09;;;;;;;30.75;14.32;;;;;;;-3.89;87.07;102413.13;5011457;28;20022;-82
2021/12/22 05:08:35;;;;;;;28.63;12.60;;;;;;;-3.91;86.16;102401.72;5012118;28;20461;-82
2021/12/22 05:11:00;;;;;;;28.30;11.50;;;;;;;-3.95;86.37;102404.28;5010788;28;20033;-82
2021/12/22 05:13:25;;;;;;;30.67;13.57;;;;;;;-3.98;86.11;102405.13;5011826;28;20029;-82
2021/12/22 05:15:52;;;;;;;29.02;12.60;;;;;;;-4.01;86.27;102398.94;4993778;28;20026;-82
2021/12/22 05:18:24;;;;;;;28.65;12.60;;;;;;;-4.04;86.86;102399.81;4993601;28;20025;-82
2021/12/22 05:20:50;;;;;;;28.10;12.18;;;;;;;-4.07;85.88;102397.13;5011173;28;20461;-82
2021/12/22 05:23:17;;;;;;;29.65;12.27;;;;;;;-4.10;85.66;102403.25;4994573;28;20830;-82
2021/12/22 05:25:42;;;;;;;32.22;12.00;;;;;;;-4.09;86.20;102393.59;4993526;28;20458;-82
2021/12/22 05:28:07;;;;;;;26.02;12.63;;;;;;;-4.11;86.48;102401.47;5011531;28;20196;-82
2021/12/22 05:30:32;;;;;;;30.95;12.27;;;;;;;-4.11;86.18;102408.47;5004776;28;20059;-82
2021/12/22 05:32:58;;;;;;;28.00;11.85;;;;;;;-4.12;86.20;102406.69;5031100;28;20107;-82
2021/12/22 05:35:23;;;;;;;28.75;12.48;;;;;;;-4.13;85.80;102411.09;5001513;28;20025;-82
2021/12/22 05:37:49;;;;;;;24.40;10.65;;;;;;;-4.16;85.68;102407.53;4991073;28;20038;-82
2021/12/22 05:40:14;;;;;;;28.83;12.35;;;;;;;-4.15;86.08;102396.16;5001088;28;20549;-82
2021/12/22 05:42:42;;;;;;;26.65;12.25;;;;;;;-4.16;86.32;102395.25;5010448;28;20022;-82
2021/12/22 05:45:08;;;;;;;25.33;11.30;;;;;;;-4.20;86.31;102382.97;5010538;28;20026;-82
2021/12/22 05:47:33;;;;;;;26.08;11.63;;;;;;;-4.20;86.15;102390.84;4992936;28;20026;-82
2021/12/22 05:49:59;;;;;;;28.20;13.27;;;;;;;-4.22;86.54;102384.69;4992909;28;20443;-82
2021/12/22 05:52:24;;;;;;;31.95;11.85;;;;;;;-4.24;86.57;102375.94;4992390;28;20128;-82
2021/12/22 05:54:49;;;;;;;30.38;13.18;;;;;;;-4.22;86.29;102387.31;4992715;28;20117;-82
2021/12/22 05:57:15;;;;;;;28.02;11.18;;;;;;;-4.24;86.54;102386.44;4992415;28;20028;-82
2021/12/22 05:59:41;;;;;;;26.77;10.35;;;;;;;-4.25;85.77;102388.16;5014786;28;20022;-82
2021/12/22 06:02:06;;;;;;;27.55;11.52;;;;;;;-4.28;85.45;102375.00;4992877;28;20026;-82
2021/12/22 06:04:31;;;;;;;27.80;10.93;;;;;;;-4.29;85.48;102372.34;4992950;28;20025;-82
2021/12/22 06:06:56;;;;;;;31.13;12.73;;;;;;;-4.29;86.16;102373.25;5011935;28;20053;-82
2021/12/22 06:09:22;;;;;;;27.38;11.02;;;;;;;-4.31;85.88;102372.31;4993372;28;20030;-82
2021/12/22 06:11:47;;;;;;;26.45;10.75;;;;;;;-4.30;85.88;102381.09;5010675;28;20033;-82
2021/12/22 06:14:12;;;;;;;28.13;10.93;;;;;;;-4.33;86.23;102389.81;4993991;28;20018;-82
2021/12/22 06:16:37;;;;;;;28.17;11.40;;;;;;;-4.34;86.17;102392.41;5009504;28;20546;-82
2021/12/22 06:19:08;;;;;;;30.27;12.50;;;;;;;-4.35;85.95;102394.13;4992822;28;20026;-82
2021/12/22 06:21:33;;;;;;;28.20;11.68;;;;;;;-4.36;85.74;102391.50;4991517;28;20024;-82
2021/12/22 06:23:58;;;;;;;30.02;11.90;;;;;;;-4.40;85.44;102395.84;4992256;28;20021;-82
2021/12/22 06:26:24;;;;;;;24.17;11.05;;;;;;;-4.43;85.33;102391.41;4992373;28;20106;-82
2021/12/22 06:28:50;;;;;;;27.55;10.32;;;;;;;-4.45;84.79;102392.25;4992997;28;20034;-82
2021/12/22 06:31:15;;;;;;;23.58;10.27;;;;;;;-4.48;85.45;102385.25;4993856;28;20030;-82
2021/12/22 06:33:40;;;;;;;25.92;11.32;;;;;;;-4.49;85.64;102379.97;4993227;28;20357;-82
2021/12/22 06:36:06;;;;;;;27.40;11.80;;;;;;;-4.54;85.07;102385.13;4991970;28;20069;-82
2021/12/22 06:38:31;;;;;;;26.10;10.43;;;;;;;-4.54;85.31;102392.13;4992686;28;20030;-82
2021/12/22 06:40:56;;;;;;;24.02;11.07;;;;;;;-4.58;85.01;102391.22;5009692;28;20030;-82
2021/12/22 06:43:22;;;;;;;25.70;11.27;;;;;;;-4.59;85.43;102397.31;4993073;28;20061;-82
2021/12/22 06:45:47;;;;;;;24.88;11.00;;;;;;;-4.65;84.87;102392.88;4991129;28;20087;-82
2021/12/22 06:48:13;;;;;;;28.17;10.45;;;;;;;-4.64;84.92;102394.63;4992573;28;20065;-82
2021/12/22 06:50:38;;;;;;;27.67;10.35;;;;;;;-4.67;84.89;102396.31;4991716;28;20041;-82
2021/12/22 06:53:03;;;;;;;30.67;11.45;;;;;;;-4.69;85.00;102393.66;4991735;28;20029;-82
2021/12/22 06:55:29;;;;;;;27.57;11.50;;;;;;;-4.70;84.71;102407.66;4991852;28;20030;-82
2021/12/22 06:57:55;;;;;;;23.63;9.48;;;;;;;-4.73;84.08;102404.97;4991978;28;20520;-82
2021/12/22 07:00:20;;;;;;;27.63;11.00;;;;;;;-4.73;84.03;102404.97;5000798;28;20021;-82
2021/12/22 07:02:45;;;;;;;25.58;11.15;;;;;;;-4.74;84.75;102401.47;5010088;28;20033;-82
2021/12/22 07:05:11;;;;;;;25.52;10.23;;;;;;;-4.76;84.28;102413.69;5009808;28;20037;-82
2021/12/22 07:07:38;;;;;;;27.42;11.55;;;;;;;-4.78;84.28;102407.53;4987842;28;20054;-82
2021/12/22 07:10:07;;;;;;;29.23;11.60;;;;;;;-4.81;84.13;102398.75;4989113;28;20034;-82
2021/12/22 07:12:36;;;;;;;23.35;9.73;;;;;;;-4.78;84.42;102399.66;4989271;28;20022;-82
2021/12/22 07:15:03;;;;;;;25.23;11.35;;;;;;;-4.76;84.08;102397.06;4987892;28;20177;-82
2021/12/22 07:17:28;;;;;;;26.23;10.70;;;;;;;-4.78;84.58;102398.78;4988857;28;20029;-82
2021/12/22 07:19:54;;;;;;;26.38;11.50;;;;;;;-4.76;85.07;102397.97;4988771;28;20110;-82
2021/12/22 07:22:19;;;;;;;26.50;10.73;;;;;;;-4.74;85.24;102400.59;4989141;28;20026;-82
2021/12/22 07:24:45;;;;;;;26.25;11.07;;;;;;;-4.75;85.93;102388.34;4990097;28;20033;-82
2021/12/22 07:27:10;;;;;;;26.05;11.38;;;;;;;-4.74;85.60;102390.97;4990128;28;20030;-82
2021/12/22 07:29:37;;;;;;;29.70;11.75;;;;;;;-4.69;85.62;102390.19;4991639;28;20026;-82
2021/12/22 07:32:03;;;;;;;24.10;10.10;;;;;;;-4.70;85.51;102399.81;5006401;28;20115;-82
2021/12/22 07:34:38;;;;;;;28.73;10.10;;;;;;;-4.71;85.22;102390.16;4988509;28;20093;-82
2021/12/22 07:37:27;;;;;;;25.58;9.88;;;;;;;-4.66;85.02;102392.84;4987964;28;20113;-82
2021/12/22 07:39:53;;;;;;;25.88;10.68;;;;;;;-4.65;85.04;102395.47;4975302;28;20030;-82
2021/12/22 07:42:18;;;;;;;29.13;10.45;;;;;;;-4.63;85.05;102393.75;4989383;28;20033;-83
2021/12/22 07:44:44;;;;;;;25.00;9.85;;;;;;;-4.58;85.97;102401.72;4989060;28;20026;-83
2021/12/22 07:47:09;;;;;;;25.23;9.55;;;;;;;-4.53;86.18;102396.53;4988184;28;20121;-83
2021/12/22 07:49:34;;;;;;;23.42;9.95;;;;;;;-4.50;86.20;102393.94;4988318;28;20026;-83
2021/12/22 07:52:00;;;;;;;27.25;10.82;;;;;;;-4.49;86.64;102391.34;4985337;28;20437;-83
2021/12/22 07:54:25;;;;;;;27.20;9.70;;;;;;;-4.47;86.63;102386.97;4987128;28;20030;-82
2021/12/22 07:56:50;;;;;;;24.80;10.85;;;;;;;-4.45;86.46;102390.53;4989288;28;20117;-82
2021/12/22 07:59:15;;;;;;;23.25;9.90;;;;;;;-4.41;86.48;102386.19;4977895;28;20052;-82
2021/12/22 08:01:41;;;;;;;22.88;9.10;;;;;;;-4.41;86.51;102384.47;4983592;28;20125;-82
2021/12/22 08:04:06;;;;;;;27.10;9.93;;;;;;;-4.39;86.61;102385.34;4987593;28;20117;-82
2021/12/22 08:06:32;;;;;;;27.38;10.98;;;;;;;-4.39;86.71;102376.63;4987105;28;20042;-82
2021/12/22 08:08:57;;;;;;;24.55;10.45;;;;;;;-4.33;86.73;102383.66;4992621;28;20069;-78
2021/12/22 08:11:22;;;;;;;23.70;9.63;;;;;;;-4.30;86.74;102392.47;4993331;28;20039;-78
2021/12/22 08:13:48;;;;;;;23.50;10.35;;;;;;;-4.28;85.95;102385.50;4991621;28;20045;-78
2021/12/22 08:16:13;;;;;;;27.65;10.65;;;;;;;-4.23;86.16;102389.06;4988445;28;20038;-78
2021/12/22 08:18:38;;;;;;;28.85;10.90;;;;;;;-4.21;86.52;102381.22;4987673;28;20123;-78
2021/12/22 08:21:03;;;;;;;25.30;9.40;;;;;;;-4.16;86.96;102391.75;4987457;28;20048;-79
2021/12/22 08:23:29;;;;;;;24.65;11.20;;;;;;;-4.10;87.32;102384.88;4988064;28;20034;-78
2021/12/22 08:25:54;;;;;;;26.25;11.60;;;;;;;-4.05;87.23;102387.53;4986699;28;20068;-78
2021/12/22 08:28:20;;;;;;;24.80;9.88;;;;;;;-4.02;87.50;102379.69;4988749;28;20133;-78
2021/12/22 08:30:45;;;;;;;25.45;9.98;;;;;;;-3.94;86.95;102383.31;4991802;28;20105;-79
2021/12/22 08:33:20;;;;;;;25.98;11.05;;;;;;;-3.89;87.29;102394.72;4983253;28;20049;-78
2021/12/22 08:38:51;;;;;;;25.70;9.95;;;;;;;-3.78;87.08;102391.34;4992814;28;20076;-78
2021/12/22 08:41:39;;;;;;;27.65;9.52;;;;;;;-3.72;87.44;102389.66;4987461;28;21254;-78
2021/12/22 08:44:08;;;;;;;27.40;11.55;;;;;;;-3.70;87.15;102387.06;4993424;28;20414;-78
2021/12/22 08:46:36;;;;;;;23.93;11.00;;;;;;;-3.67;86.63;102384.47;4988802;28;20031;-78
2021/12/22 08:49:04;;;;;;;24.92;10.45;;;;;;;-3.65;86.46;102382.72;4986573;28;21297;-78
2021/12/22 08:51:30;;;;;;;25.17;10.55;;;;;;;-3.61;86.47;102381.88;4987789;28;20767;-78
2021/12/22 08:53:55;;;;;;;23.60;9.50;;;;;;;-3.59;87.04;102372.25;4988058;28;20129;-79
2021/12/22 08:56:21;;;;;;;29.85;11.82;;;;;;;-3.57;86.82;102375.81;4986815;28;20494;-78
2021/12/22 08:58:46;;;;;;;23.67;10.90;;;;;;;-3.53;87.38;102379.34;4988067;28;20038;-78
2021/12/22 09:01:13;;;;;;;27.98;11.25;;;;;;;-3.49;87.38;102389.00;4991496;28;20088;-75
2021/12/22 09:03:38;;;;;;;23.25;9.60;;;;;;;-3.46;87.05;102382.91;4990049;28;20049;-78
2021/12/22 09:06:03;;;;;;;26.35;9.68;;;;;;;-3.39;86.90;102379.47;4985549;28;20029;-79
2021/12/22 09:08:29;;;;;;;23.17;10.30;;;;;;;-3.36;87.05;102376.88;4991258;28;20129;-78
2021/12/22 09:10:54;;;;;;;24.90;10.63;;;;;;;-3.33;87.02;102372.50;4987983;28;20068;-79
2021/12/22 09:13:20;;;;;;;27.25;11.55;;;;;;;-3.26;87.07;102386.59;4989862;28;20596;-79
2021/12/22 09:15:47;;;;;;;26.75;10.40;;;;;;;-3.22;87.21;102388.41;4990203;28;20026;-78
2021/12/22 09:18:13;;;;;;;23.17;10.50;;;;;;;-3.17;87.51;102373.53;4989526;28;20112;-78
2021/12/22 09:20:39;;;;;;;32.83;11.40;;;;;;;-3.12;87.38;102377.94;4985603;28;20030;-78
2021/12/22 09:23:04;;;;;;;27.10;11.55;;;;;;;-3.06;87.29;102370.09;4990945;28;20396;-78
2021/12/22 09:25:30;;;;;;;26.65;11.65;;;;;;;-3.01;87.45;102371.03;4988304;28;20033;-78
2021/12/22 09:27:58;;;;;;;26.88;10.23;;;;;;;-2.96;86.69;102374.56;4991608;28;20591;-78
2021/12/22 09:30:23;;;;;;;23.40;10.60;;;;;;;-2.92;86.61;102376.34;4989960;28;20026;-78
2021/12/22 09:32:48;;;;;;;26.42;9.88;;;;;;;-2.86;87.23;102375.53;4988692;28;20492;-78
2021/12/22 09:35:14;;;;;;;24.90;10.90;;;;;;;-2.82;87.04;102378.19;4987054;28;20052;-79
2021/12/22 09:37:39;;;;;;;31.10;11.40;;;;;;;-2.75;87.57;102365.97;4986827;28;20055;-79
2021/12/22 09:40:06;;;;;;;27.08;11.27;;;;;;;-2.69;87.20;102368.63;4988009;28;20510;-79
2021/12/22 09:42:31;;;;;;;23.75;10.35;;;;;;;-2.61;87.22;102366.03;4988637;28;20038;-79
2021/12/22 09:45:00;;;;;;;25.55;11.35;;;;;;;-2.55;87.30;102360.78;4986025;28;20030;-79
2021/12/22 09:47:29;;;;;;;25.23;10.52;;;;;;;-2.51;87.11;102357.31;4988645;28;20030;-79
2021/12/22 09:52:29;;;;;;;27.67;11.10;;;;;;;-2.35;87.27;102357.41;4986939;28;20398;-79
2021/12/22 09:54:56;;;;;;;24.60;9.57;;;;;;;-2.27;87.10;102363.56;4987303;28;20099;-79
2021/12/22 09:57:23;;;;;;;25.10;10.60;;;;;;;-2.19;87.15;102363.63;4988029;28;20034;-79
2021/12/22 09:59:51;;;;;;;21.73;9.48;;;;;;;-2.13;86.83;102369.78;4991694;28;20057;-79
2021/12/22 10:02:19;;;;;;;24.42;9.52;;;;;;;-2.04;86.94;102373.31;4991217;28;20034;-79
2021/12/22 10:04:45;;;;;;;25.30;11.38;;;;;;;-1.96;86.13;102376.88;4987695;28;20046;-79
2021/12/22 10:07:25;;;;;;;25.95;9.73;;;;;;;-1.90;86.57;102363.72;4994929;28;20046;-79
2021/12/22 10:09:52;;;;;;;24.15;10.57;;;;;;;-1.83;86.32;102362.88;5006498;28;20478;-79
2021/12/22 10:12:20;;;;;;;24.85;10.40;;;;;;;-1.78;86.61;102352.31;4987782;28;20022;-79
2021/12/22 10:14:52;;;;;;;23.98;10.07;;;;;;;-1.74;86.56;102355.84;4989990;28;20045;-79
2021/12/22 10:17:32;;;;;;;23.15;10.23;;;;;;;-1.71;86.51;102355.84;4992370;28;20025;-79
2021/12/22 10:19:59;;;;;;;22.25;9.90;;;;;;;-1.72;86.08;102349.69;4993357;28;20038;-79
2021/12/22 10:22:30;;;;;;;27.25;11.13;;;;;;;-1.69;86.31;102348.84;4991634;28;20049;-79
2021/12/22 10:25:03;;;;;;;30.73;10.13;;;;;;;-1.67;86.33;102352.34;4992052;28;20025;-79
2021/12/22 10:27:29;;;;;;;26.55;11.43;;;;;;;-1.66;85.85;102343.56;4991675;28;20117;-79
2021/12/22 10:29:54;;;;;;;23.55;10.95;;;;;;;-1.64;86.12;102347.97;4994716;28;20113;-79
2021/12/22 10:32:20;;;;;;;24.92;9.60;;;;;;;-1.61;85.91;102347.97;5009603;28;20563;-79
2021/12/22 10:35:00;;;;;;;22.67;9.27;;;;;;;-1.56;86.70;102349.75;5005101;28;20041;-79
2021/12/22 10:37:33;;;;;;;25.15;10.25;;;;;;;-1.55;85.91;102340.94;5010139;28;20049;-79
2021/12/22 10:39:59;;;;;;;20.70;9.20;;;;;;;-1.51;85.88;102342.69;5007596;28;20112;-79
2021/12/22 10:42:40;;;;;;;24.38;9.60;;;;;;;-1.45;86.05;102337.44;4991399;28;20060;-79
2021/12/22 10:45:14;;;;;;;23.65;10.82;;;;;;;-1.41;85.60;102332.19;4992318;28;20521;-79
2021/12/22 10:50:41;;;;;;;23.05;10.27;;;;;;;-1.28;85.34;102326.88;5005194;28;20124;-79
2021/12/22 10:53:08;;;;;;;25.42;11.13;;;;;;;-1.26;85.91;102311.94;5004308;28;20140;-79
2021/12/22 10:55:47;;;;;;;26.30;11.35;;;;;;;-1.23;85.64;102310.19;4986251;28;20030;-79
2021/12/22 10:58:23;;;;;;;22.05;10.07;;;;;;;-1.16;84.42;102307.53;4988197;28;20029;-79
2021/12/22 11:01:13;;;;;;;24.48;9.85;;;;;;;-1.09;85.05;102301.38;5004645;28;20485;-79
2021/12/22 11:03:47;;;;;;;21.92;8.80;;;;;;;-1.06;84.27;102304.88;4988187;28;20094;-79
2021/12/22 11:06:23;;;;;;;22.58;9.73;;;;;;;-1.00;84.34;102293.44;4986787;28;20173;-79
2021/12/22 11:09:15;;;;;;;22.60;9.60;;;;;;;-0.93;84.06;102294.31;4984527;28;20046;-80
2021/12/22 11:11:44;;;;;;;24.83;11.80;;;;;;;-0.89;84.44;102293.44;4982467;28;20038;-79
2021/12/22 11:14:09;;;;;;;22.60;10.63;;;;;;;-0.83;84.53;102297.81;4987153;28;20052;-79
2021/12/22 11:17:09;;;;;;;43.95;13.25;;;;;;;-0.76;86.37;102296.88;4981852;28;20076;-79
2021/12/22 11:19:57;;;;;;;22.48;9.48;;;;;;;-0.76;84.53;102289.88;4983346;28;20026;-79
2021/12/22 11:22:38;;;;;;;21.67;9.82;;;;;;;-0.69;84.21;102290.72;4983624;28;20786;-79
2021/12/22 11:25:06;;;;;;;22.63;9.98;;;;;;;-0.62;82.74;102294.22;4985109;28;20128;-79
2021/12/22 11:27:35;;;;;;;24.75;10.95;;;;;;;-0.56;82.89;102294.19;4985527;28;20185;-79
2021/12/22 11:30:00;;;;;;;23.17;9.57;;;;;;;-0.52;82.30;102284.53;4984074;28;20398;-79
2021/12/22 11:32:31;;;;;;;23.27;9.57;;;;;;;-0.50;82.43;102282.72;4982911;28;20034;-79
2021/12/22 11:34:59;;;;;;;23.45;9.93;;;;;;;-0.48;82.32;102280.94;4984189;28;20054;-79
2021/12/22 11:37:25;;;;;;;22.60;10.05;;;;;;;-0.47;83.09;102288.00;4981596;28;20022;-79